Time;durP1;ratioP1;P1;durP2;ratioP2;P2;SDS_P1;SDS_P2;PMS_P1;PMS_P2;Temp;Humidity;BMP_temperature;BMP_pressure;BME280_temperature;BME280_humidity;BME280_pressure;Samples;Min_cycle;Max_cycle;Signal;HPM_P1;HPM_P2
2021/05/09 00:00:04;;;;;;;;;;;21.40;36.00;;;;;;491111;243;1043;-72
2021/05/09 00:02:08;;;;;;;;;;;21.30;36.00;;;;;;490017;241;1051;-72
2021/05/09 00:04:09;;;;;;;;;;;21.40;35.90;;;;;;487844;239;2189;-72
2021/05/09 00:06:10;;;;;;;;;;;21.40;35.90;;;;;;490409;243;995;-73
2021/05/09 00:08:12;;;;;;;;;;;21.30;36.00;;;;;;488817;242;1204;-73
2021/05/09 00:10:14;;;;;;;;;;;21.20;36.00;;;;;;490272;242;1085;-72
2021/05/09 00:12:15;;;;;;;;;;;21.30;36.00;;;;;;490628;242;1117;-72
2021/05/09 00:14:16;;;;;;;;;;;21.30;35.90;;;;;;488815;239;1320;-72
2021/05/09 00:16:18;;;;;;;;;;;21.30;35.90;;;;;;490322;243;1070;-72
2021/05/09 00:18:21;;;;;;;;;;;21.30;36.00;;;;;;488840;242;1060;-72
2021/05/09 00:20:22;;;;;;;;;;;21.30;35.90;;;;;;487406;243;1348;-72
2021/05/09 00:22:23;;;;;;;;;;;21.30;35.90;;;;;;491165;240;1276;-73
2021/05/09 00:24:24;;;;;;;;;;;21.30;35.80;;;;;;490850;241;2164;-72
2021/05/09 00:26:28;;;;;;;;;;;21.30;35.90;;;;;;488920;242;1160;-72
2021/05/09 00:28:30;;;;;;;;;;;21.30;36.00;;;;;;487403;243;1170;-72
2021/05/09 00:30:31;;;;;;;;;;;21.20;35.90;;;;;;490523;243;1173;-72
2021/05/09 00:32:32;;;;;;;;;;;21.20;36.00;;;;;;488835;242;1066;-72
2021/05/09 00:34:34;;;;;;;;;;;21.20;36.00;;;;;;487336;243;1118;-72
2021/05/09 00:36:35;;;;;;;;;;;21.20;36.00;;;;;;487308;243;1031;-72
2021/05/09 00:38:36;;;;;;;;;;;21.20;35.90;;;;;;487318;243;1189;-73
2021/05/09 00:40:38;;;;;;;;;;;21.20;35.90;;;;;;487359;243;1216;-73
2021/05/09 00:42:39;;;;;;;;;;;21.20;35.90;;;;;;487300;243;2128;-72
2021/05/09 00:44:40;;;;;;;;;;;21.30;35.90;;;;;;490351;243;1068;-72
2021/05/09 00:46:42;;;;;;;;;;;21.30;35.80;;;;;;488830;242;1184;-72
2021/05/09 00:48:43;;;;;;;;;;;21.40;35.70;;;;;;487410;243;1418;-72
2021/05/09 00:50:44;;;;;;;;;;;21.30;35.60;;;;;;487493;240;1419;-73
2021/05/09 00:52:46;;;;;;;;;;;21.40;35.70;;;;;;488904;243;1125;-72
2021/05/09 00:54:48;;;;;;;;;;;21.30;35.70;;;;;;490741;241;950;-73
2021/05/09 00:56:49;;;;;;;;;;;21.30;35.70;;;;;;489996;238;1397;-73
2021/05/09 00:58:50;;;;;;;;;;;21.20;35.80;;;;;;487729;242;1067;-73
2021/05/09 01:00:51;;;;;;;;;;;21.20;35.80;;;;;;488948;243;1191;-72
2021/05/09 01:02:53;;;;;;;;;;;21.20;36.00;;;;;;491470;241;2188;-73
2021/05/09 01:04:54;;;;;;;;;;;21.20;35.90;;;;;;489886;241;1072;-73
2021/05/09 01:06:55;;;;;;;;;;;21.20;35.90;;;;;;487613;242;1241;-72
2021/05/09 01:08:57;;;;;;;;;;;21.20;35.80;;;;;;487245;243;1186;-72
2021/05/09 01:10:58;;;;;;;;;;;21.20;35.80;;;;;;487281;243;1332;-73
2021/05/09 01:13:01;;;;;;;;;;;21.10;35.90;;;;;;490324;243;975;-72
2021/05/09 01:15:04;;;;;;;;;;;21.20;36.00;;;;;;488899;242;1044;-72
2021/05/09 01:17:05;;;;;;;;;;;21.20;35.90;;;;;;487408;243;1112;-72
2021/05/09 01:19:07;;;;;;;;;;;21.20;35.90;;;;;;487389;243;1031;-72
2021/05/09 01:21:08;;;;;;;;;;;21.20;35.90;;;;;;490406;243;1056;-72
2021/05/09 01:23:10;;;;;;;;;;;21.30;35.80;;;;;;488889;242;2202;-72
2021/05/09 01:25:11;;;;;;;;;;;21.30;35.90;;;;;;487417;243;1081;-72
2021/05/09 01:27:12;;;;;;;;;;;21.20;35.90;;;;;;488873;243;1059;-72
2021/05/09 01:29:13;;;;;;;;;;;21.10;36.00;;;;;;490007;241;1124;-73
2021/05/09 01:31:15;;;;;;;;;;;21.10;36.00;;;;;;487781;242;1090;-73
2021/05/09 01:33:16;;;;;;;;;;;21.10;36.10;;;;;;487337;243;950;-73
2021/05/09 01:35:18;;;;;;;;;;;21.10;36.00;;;;;;490307;243;1064;-72
2021/05/09 01:37:19;;;;;;;;;;;21.10;36.10;;;;;;488839;242;982;-72
2021/05/09 01:39:20;;;;;;;;;;;21.10;36.00;;;;;;487397;243;1191;-72
2021/05/09 01:41:22;;;;;;;;;;;21.00;36.00;;;;;;487492;243;999;-72
2021/05/09 01:43:23;;;;;;;;;;;21.10;36.00;;;;;;487375;243;2150;-72
2021/05/09 01:45:24;;;;;;;;;;;21.00;36.10;;;;;;490310;243;986;-73
2021/05/09 01:47:25;;;;;;;;;;;21.00;36.10;;;;;;490727;242;1155;-72
2021/05/09 01:49:27;;;;;;;;;;;21.00;36.20;;;;;;489062;242;969;-72
2021/05/09 01:51:28;;;;;;;;;;;21.00;36.20;;;;;;490956;243;1127;-73
2021/05/09 01:53:29;;;;;;;;;;;21.10;36.10;;;;;;490022;241;1168;-72
2021/05/09 01:55:30;;;;;;;;;;;21.10;36.10;;;;;;487722;242;1090;-73
2021/05/09 01:57:32;;;;;;;;;;;21.00;36.00;;;;;;487365;243;1101;-73
2021/05/09 01:59:33;;;;;;;;;;;21.00;36.00;;;;;;487406;243;1049;-72
2021/05/09 02:01:35;;;;;;;;;;;21.10;36.10;;;;;;490313;242;1167;-73
2021/05/09 02:03:36;;;;;;;;;;;21.20;35.90;;;;;;491214;242;2195;-72
2021/05/09 02:05:37;;;;;;;;;;;21.10;35.70;;;;;;491019;241;1109;-72
2021/05/09 02:07:38;;;;;;;;;;;21.20;35.80;;;;;;489052;242;1519;-72
2021/05/09 02:09:40;;;;;;;;;;;21.20;35.80;;;;;;490816;243;1061;-72
2021/05/09 02:11:41;;;;;;;;;;;21.20;35.70;;;;;;490054;241;1268;-72
2021/05/09 02:13:43;;;;;;;;;;;21.20;35.70;;;;;;487821;242;1128;-72
2021/05/09 02:15:44;;;;;;;;;;;21.10;35.70;;;;;;487338;243;1073;-72
2021/05/09 02:17:45;;;;;;;;;;;21.10;35.70;;;;;;490265;243;1044;-72
2021/05/09 02:19:46;;;;;;;;;;;21.00;35.80;;;;;;489126;242;1119;-72
2021/05/09 02:21:48;;;;;;;;;;;21.00;35.90;;;;;;487326;243;1218;-72
2021/05/09 02:23:49;;;;;;;;;;;21.00;36.00;;;;;;490156;243;2188;-72
2021/05/09 02:25:53;;;;;;;;;;;21.10;35.90;;;;;;490204;241;1367;-73
2021/05/09 02:27:54;;;;;;;;;;;21.00;36.00;;;;;;489976;241;1058;-72
2021/05/09 02:29:56;;;;;;;;;;;21.00;36.00;;;;;;489090;242;1101;-72
2021/05/09 02:31:57;;;;;;;;;;;21.00;36.00;;;;;;489990;241;1213;-72
2021/05/09 02:33:58;;;;;;;;;;;21.00;36.00;;;;;;487888;242;1073;-73
2021/05/09 02:36:00;;;;;;;;;;;20.90;36.00;;;;;;490290;243;1100;-73
2021/05/09 02:38:01;;;;;;;;;;;21.00;35.90;;;;;;489021;242;1079;-72
2021/05/09 02:40:02;;;;;;;;;;;21.00;35.90;;;;;;490753;243;1176;-72
2021/05/09 02:42:03;;;;;;;;;;;21.10;35.80;;;;;;490984;241;1159;-72
2021/05/09 02:44:05;;;;;;;;;;;21.20;35.50;;;;;;489118;242;2189;-72
2021/05/09 02:46:06;;;;;;;;;;;21.40;35.30;;;;;;487291;243;1237;-73
2021/05/09 02:48:08;;;;;;;;;;;21.50;35.20;;;;;;490141;243;1147;-72
2021/05/09 02:50:09;;;;;;;;;;;21.50;35.00;;;;;;490670;242;984;-72
2021/05/09 02:52:10;;;;;;;;;;;21.60;34.80;;;;;;490253;242;1207;-72
2021/05/09 02:54:14;;;;;;;;;;;21.70;34.80;;;;;;490117;241;1193;-72
2021/05/09 02:56:15;;;;;;;;;;;21.70;34.70;;;;;;489017;242;1271;-72
2021/05/09 02:58:16;;;;;;;;;;;21.70;34.60;;;;;;489958;241;1070;-72
2021/05/09 03:00:18;;;;;;;;;;;21.70;34.50;;;;;;489092;242;1240;-73
2021/05/09 03:02:19;;;;;;;;;;;21.80;34.50;;;;;;491018;241;1244;-73
2021/05/09 03:04:20;;;;;;;;;;;21.80;34.30;;;;;;490591;242;2188;-72
2021/05/09 03:06:22;;;;;;;;;;;21.80;34.30;;;;;;491239;242;1195;-73
2021/05/09 03:08:23;;;;;;;;;;;21.80;34.30;;;;;;491009;241;1092;-73
2021/05/09 03:10:24;;;;;;;;;;;21.80;34.30;;;;;;490658;242;1171;-72
2021/05/09 03:12:26;;;;;;;;;;;21.80;34.30;;;;;;489021;238;1287;-72
2021/05/09 03:14:27;;;;;;;;;;;21.80;34.30;;;;;;487421;240;1254;-72
2021/05/09 03:16:28;;;;;;;;;;;21.80;34.30;;;;;;487318;243;1237;-73
2021/05/09 03:18:30;;;;;;;;;;;21.80;34.30;;;;;;488616;243;1129;-72
2021/05/09 03:20:31;;;;;;;;;;;21.80;34.20;;;;;;490058;241;1358;-72
2021/05/09 03:22:32;;;;;;;;;;;21.70;34.30;;;;;;487830;242;1210;-72
2021/05/09 03:24:34;;;;;;;;;;;21.80;34.20;;;;;;487345;243;2191;-72
2021/05/09 03:26:35;;;;;;;;;;;21.80;34.20;;;;;;487326;243;1156;-72
2021/05/09 03:28:39;;;;;;;;;;;21.80;34.00;;;;;;487416;241;1287;-72
2021/05/09 03:30:39;;;;;;;;;;;21.90;34.00;;;;;;488648;242;1446;-73
2021/05/09 03:32:40;;;;;;;;;;;21.80;34.00;;;;;;490137;241;1225;-72
2021/05/09 03:34:41;;;;;;;;;;;21.90;33.90;;;;;;489151;242;1045;-72
2021/05/09 03:36:42;;;;;;;;;;;21.90;33.80;;;;;;490538;241;1373;-72
2021/05/09 03:38:44;;;;;;;;;;;21.90;33.80;;;;;;490652;241;973;-73
2021/05/09 03:40:45;;;;;;;;;;;21.90;33.70;;;;;;490119;241;1199;-73
2021/05/09 03:42:46;;;;;;;;;;;21.90;33.70;;;;;;487854;242;1061;-73
2021/05/09 03:44:48;;;;;;;;;;;21.90;33.70;;;;;;487336;243;2190;-72
2021/05/09 03:46:49;;;;;;;;;;;21.90;33.70;;;;;;490663;243;1200;-73
2021/05/09 03:48:50;;;;;;;;;;;21.90;33.70;;;;;;490600;241;1130;-72
2021/05/09 03:50:52;;;;;;;;;;;21.90;33.70;;;;;;490046;241;1077;-72
2021/05/09 03:52:53;;;;;;;;;;;21.90;33.60;;;;;;490570;238;1164;-72
2021/05/09 03:54:54;;;;;;;;;;;21.90;33.60;;;;;;490324;242;1067;-73
2021/05/09 03:56:56;;;;;;;;;;;22.00;33.50;;;;;;491109;241;1027;-73
2021/05/09 03:58:57;;;;;;;;;;;22.00;33.50;;;;;;489132;242;1027;-72
2021/05/09 04:00:58;;;;;;;;;;;22.00;33.40;;;;;;487379;243;1234;-73
2021/05/09 04:03:01;;;;;;;;;;;22.10;33.30;;;;;;487297;243;1110;-72
2021/05/09 04:05:03;;;;;;;;;;;22.10;33.20;;;;;;488620;243;2190;-72
2021/05/09 04:07:04;;;;;;;;;;;22.10;33.20;;;;;;490036;241;1232;-73
2021/05/09 04:09:06;;;;;;;;;;;22.10;33.20;;;;;;487788;242;1057;-72
2021/05/09 04:11:11;;;;;;;;;;;22.10;33.20;;;;;;488457;243;1169;-72
2021/05/09 04:13:08;;;;;;;;;;;22.00;33.10;;;;;;490844;240;1447;-73
2021/05/09 04:15:10;;;;;;;;;;;22.00;33.20;;;;;;489067;242;1061;-73
2021/05/09 04:17:11;;;;;;;;;;;22.10;33.10;;;;;;487216;243;1272;-72
2021/05/09 04:19:12;;;;;;;;;;;22.10;33.10;;;;;;487373;243;1369;-73
2021/05/09 04:21:14;;;;;;;;;;;22.00;33.20;;;;;;487226;243;1379;-72
2021/05/09 04:23:15;;;;;;;;;;;22.00;33.20;;;;;;490582;243;1047;-72
2021/05/09 04:25:16;;;;;;;;;;;22.00;33.20;;;;;;490150;241;2185;-72
2021/05/09 04:27:18;;;;;;;;;;;22.00;33.20;;;;;;487801;242;1090;-73
2021/05/09 04:29:19;;;;;;;;;;;22.00;33.20;;;;;;490217;240;1240;-72
2021/05/09 04:31:20;;;;;;;;;;;22.00;33.20;;;;;;490303;242;1248;-73
2021/05/09 04:33:21;;;;;;;;;;;22.00;33.10;;;;;;490175;241;1033;-73
2021/05/09 04:35:25;;;;;;;;;;;22.10;33.10;;;;;;487892;242;992;-72
2021/05/09 04:37:27;;;;;;;;;;;22.10;33.00;;;;;;490049;243;1111;-73
2021/05/09 04:39:28;;;;;;;;;;;22.10;33.00;;;;;;490558;242;1117;-73
2021/05/09 04:41:29;;;;;;;;;;;22.10;33.00;;;;;;489179;242;1123;-73
2021/05/09 04:43:31;;;;;;;;;;;22.10;33.00;;;;;;488512;243;1050;-73
2021/05/09 04:45:32;;;;;;;;;;;22.10;33.00;;;;;;490616;241;2153;-73
2021/05/09 04:47:33;;;;;;;;;;;22.00;32.90;;;;;;491080;241;1049;-72
2021/05/09 04:49:34;;;;;;;;;;;22.10;33.00;;;;;;489141;242;952;-73
2021/05/09 04:51:36;;;;;;;;;;;22.00;33.00;;;;;;487435;243;1034;-73
2021/05/09 04:53:37;;;;;;;;;;;22.00;33.10;;;;;;487436;243;1001;-73
2021/05/09 04:55:38;;;;;;;;;;;22.00;33.00;;;;;;487405;243;1187;-72
2021/05/09 04:57:39;;;;;;;;;;;22.00;33.00;;;;;;487324;243;1080;-73
2021/05/09 04:59:41;;;;;;;;;;;22.00;33.00;;;;;;487399;243;994;-72
2021/05/09 05:01:42;;;;;;;;;;;22.10;33.00;;;;;;487326;243;1204;-72
2021/05/09 05:03:43;;;;;;;;;;;22.10;32.90;;;;;;487309;243;1030;-73
2021/05/09 05:05:45;;;;;;;;;;;22.10;33.00;;;;;;490042;243;2139;-73
2021/05/09 05:07:47;;;;;;;;;;;22.10;32.90;;;;;;490595;242;1042;-72
2021/05/09 05:09:49;;;;;;;;;;;22.10;32.90;;;;;;489022;242;1056;-72
2021/05/09 05:11:50;;;;;;;;;;;22.10;32.90;;;;;;487526;240;1456;-73
2021/05/09 05:13:51;;;;;;;;;;;22.10;32.90;;;;;;487543;240;1404;-73
2021/05/09 05:15:52;;;;;;;;;;;22.10;32.90;;;;;;490163;243;1074;-73
2021/05/09 05:17:54;;;;;;;;;;;22.10;33.00;;;;;;491196;242;1039;-72
2021/05/09 05:19:59;;;;;;;;;;;22.10;33.00;;;;;;491622;241;1149;-72
2021/05/09 05:22:00;;;;;;;;;;;22.10;32.90;;;;;;490146;241;1020;-73
2021/05/09 05:24:04;;;;;;;;;;;22.20;32.90;;;;;;487934;242;1031;-72
2021/05/09 05:26:05;;;;;;;;;;;22.20;32.80;;;;;;490835;243;2182;-72
2021/05/09 05:28:07;;;;;;;;;;;22.20;32.80;;;;;;490884;241;1058;-73
2021/05/09 05:30:08;;;;;;;;;;;22.10;32.90;;;;;;491231;242;1036;-72
2021/05/09 05:32:09;;;;;;;;;;;22.20;33.00;;;;;;490960;241;1015;-72
2021/05/09 05:34:10;;;;;;;;;;;22.10;33.00;;;;;;488895;242;1044;-72
2021/05/09 05:36:12;;;;;;;;;;;22.20;32.90;;;;;;490757;243;1071;-72
2021/05/09 05:38:13;;;;;;;;;;;22.20;32.90;;;;;;490071;241;1211;-73
2021/05/09 05:40:14;;;;;;;;;;;22.10;33.00;;;;;;487797;242;1699;-72
2021/05/09 05:42:16;;;;;;;;;;;22.20;33.00;;;;;;487348;243;1254;-73
2021/05/09 05:44:17;;;;;;;;;;;22.20;32.90;;;;;;490777;243;2188;-73
2021/05/09 05:46:18;;;;;;;;;;;22.20;33.00;;;;;;490036;241;1099;-72
2021/05/09 05:48:20;;;;;;;;;;;22.20;33.00;;;;;;489133;242;1086;-72
2021/05/09 05:50:22;;;;;;;;;;;22.20;33.00;;;;;;491629;241;1032;-73
2021/05/09 05:52:23;;;;;;;;;;;22.20;33.10;;;;;;490570;241;1167;-73
2021/05/09 05:54:25;;;;;;;;;;;22.20;33.10;;;;;;490928;241;1057;-73
2021/05/09 05:56:26;;;;;;;;;;;22.20;33.20;;;;;;488864;242;1166;-73
2021/05/09 05:58:28;;;;;;;;;;;22.10;33.20;;;;;;490176;243;1132;-72
2021/05/09 06:00:29;;;;;;;;;;;22.20;33.20;;;;;;490584;242;1230;-73
2021/05/09 06:02:31;;;;;;;;;;;22.10;33.20;;;;;;490566;242;974;-72
2021/05/09 06:04:34;;;;;;;;;;;22.10;33.20;;;;;;488997;242;2182;-72
2021/05/09 06:06:35;;;;;;;;;;;22.20;33.20;;;;;;488683;243;1012;-72
2021/05/09 06:08:38;;;;;;;;;;;22.20;33.20;;;;;;490013;241;1075;-72
2021/05/09 06:10:38;;;;;;;;;;;22.10;33.30;;;;;;487669;238;1407;-72
2021/05/09 06:12:40;;;;;;;;;;;22.10;33.20;;;;;;488906;239;1144;-73
2021/05/09 06:14:42;;;;;;;;;;;22.20;33.30;;;;;;490147;241;1032;-73
2021/05/09 06:16:45;;;;;;;;;;;22.20;33.30;;;;;;487863;239;1446;-72
2021/05/09 06:18:46;;;;;;;;;;;22.20;33.40;;;;;;487404;243;1373;-73
2021/05/09 06:20:48;;;;;;;;;;;22.10;33.40;;;;;;487326;243;1085;-72
2021/05/09 06:22:49;;;;;;;;;;;22.20;33.40;;;;;;487420;240;1379;-72
2021/05/09 06:24:53;;;;;;;;;;;22.10;33.50;;;;;;487291;243;2147;-73
2021/05/09 06:26:55;;;;;;;;;;;22.10;33.60;;;;;;490860;243;1153;-73
2021/05/09 06:28:56;;;;;;;;;;;22.10;33.60;;;;;;489840;237;1325;-72
2021/05/09 06:30:57;;;;;;;;;;;22.20;33.60;;;;;;489153;242;1096;-72
2021/05/09 06:32:59;;;;;;;;;;;22.30;33.60;;;;;;490020;241;1136;-72
2021/05/09 06:35:00;;;;;;;;;;;22.30;33.50;;;;;;487818;242;1038;-73
2021/05/09 06:37:02;;;;;;;;;;;22.30;33.50;;;;;;488811;243;1120;-72
2021/05/09 06:39:04;;;;;;;;;;;22.30;33.70;;;;;;490586;241;1058;-72
2021/05/09 06:41:04;;;;;;;;;;;22.20;33.70;;;;;;490571;241;1388;-72
2021/05/09 06:43:08;;;;;;;;;;;22.20;33.80;;;;;;490618;241;1209;-72
2021/05/09 06:45:13;;;;;;;;;;;22.20;33.80;;;;;;489962;241;2126;-73
2021/05/09 06:47:12;;;;;;;;;;;22.20;33.80;;;;;;491098;242;1491;-72
2021/05/09 06:49:14;;;;;;;;;;;22.30;33.80;;;;;;489884;241;1114;-72
2021/05/09 06:51:15;;;;;;;;;;;22.30;33.90;;;;;;487549;242;1598;-73
2021/05/09 06:53:16;;;;;;;;;;;22.30;34.00;;;;;;488780;243;1596;-72
2021/05/09 06:55:18;;;;;;;;;;;22.30;34.10;;;;;;490820;241;1089;-73
2021/05/09 06:57:18;;;;;;;;;;;22.30;34.20;;;;;;488775;242;1416;-73
2021/05/09 06:59:20;;;;;;;;;;;22.20;34.30;;;;;;488886;243;1285;-73
2021/05/09 07:01:21;;;;;;;;;;;22.30;34.40;;;;;;491004;241;1026;-72
2021/05/09 07:03:22;;;;;;;;;;;22.30;34.30;;;;;;490685;242;1075;-73
2021/05/09 07:05:24;;;;;;;;;;;22.30;34.30;;;;;;490657;242;2204;-72
2021/05/09 07:07:25;;;;;;;;;;;22.30;34.40;;;;;;488883;242;1095;-73
2021/05/09 07:09:26;;;;;;;;;;;22.30;34.40;;;;;;487357;243;1093;-73
2021/05/09 07:11:28;;;;;;;;;;;22.30;34.30;;;;;;490391;243;1021;-73
2021/05/09 07:13:29;;;;;;;;;;;22.30;34.40;;;;;;490607;242;1079;-72
2021/05/09 07:15:33;;;;;;;;;;;22.30;34.40;;;;;;490631;242;1033;-72
2021/05/09 07:17:31;;;;;;;;;;;22.30;34.40;;;;;;488784;241;1367;-73
2021/05/09 07:19:33;;;;;;;;;;;22.30;34.60;;;;;;490934;242;1070;-73
2021/05/09 07:21:37;;;;;;;;;;;22.30;34.60;;;;;;489899;241;1308;-72
2021/05/09 07:23:37;;;;;;;;;;;22.30;34.70;;;;;;488736;238;1346;-72
2021/05/09 07:25:36;;;;;;;;;;;22.30;34.60;;;;;;491363;240;2180;-73
2021/05/09 07:27:38;;;;;;;;;;;22.30;34.80;;;;;;489959;241;1224;-72
2021/05/09 07:29:41;;;;;;;;;;;22.30;34.90;;;;;;489129;242;1046;-73
2021/05/09 07:31:45;;;;;;;;;;;22.30;34.90;;;;;;490155;238;1580;-73
2021/05/09 07:33:46;;;;;;;;;;;22.30;35.00;;;;;;487660;242;1031;-73
2021/05/09 07:35:47;;;;;;;;;;;22.30;35.00;;;;;;487419;243;1260;-72
2021/05/09 07:37:50;;;;;;;;;;;22.30;35.10;;;;;;487540;242;1509;-72
2021/05/09 07:39:50;;;;;;;;;;;22.30;35.10;;;;;;487294;243;1511;-72
2021/05/09 07:41:52;;;;;;;;;;;22.30;35.20;;;;;;488851;243;1156;-72
2021/05/09 07:43:54;;;;;;;;;;;22.30;35.30;;;;;;489887;241;1174;-73
2021/05/09 07:45:55;;;;;;;;;;;22.30;35.30;;;;;;487559;242;2186;-72
2021/05/09 07:47:57;;;;;;;;;;;22.30;35.40;;;;;;487319;241;1360;-72
2021/05/09 07:49:59;;;;;;;;;;;22.30;35.50;;;;;;487312;243;1184;-73
2021/05/09 07:52:01;;;;;;;;;;;22.30;35.60;;;;;;489036;243;1079;-73
2021/05/09 07:54:02;;;;;;;;;;;22.30;35.60;;;;;;490834;241;1071;-72
2021/05/09 07:56:03;;;;;;;;;;;22.30;35.50;;;;;;490729;242;1057;-72
2021/05/09 07:58:05;;;;;;;;;;;22.30;35.50;;;;;;488883;242;1175;-73
2021/05/09 08:00:17;;;;;;;;;;;22.30;35.50;;;;;;490489;243;1109;-73
2021/05/09 08:02:20;;;;;;;;;;;22.40;35.60;;;;;;488711;242;1114;-72
2021/05/09 08:04:20;;;;;;;;;;;22.30;35.60;;;;;;491342;242;1382;-73
2021/05/09 08:06:21;;;;;;;;;;;22.30;35.90;;;;;;489749;241;2181;-73
2021/05/09 08:08:24;;;;;;;;;;;22.30;35.90;;;;;;489373;242;1061;-73
2021/05/09 08:10:26;;;;;;;;;;;22.30;36.00;;;;;;489713;241;1069;-73
2021/05/09 08:12:27;;;;;;;;;;;22.30;36.00;;;;;;487316;242;1183;-72
2021/05/09 08:14:28;;;;;;;;;;;22.30;36.10;;;;;;487310;243;1141;-73
2021/05/09 08:16:30;;;;;;;;;;;22.30;36.10;;;;;;491415;242;1101;-73
2021/05/09 08:18:33;;;;;;;;;;;22.40;36.00;;;;;;491601;241;1210;-73
2021/05/09 08:20:33;;;;;;;;;;;22.30;36.10;;;;;;489769;241;1425;-73
2021/05/09 08:22:34;;;;;;;;;;;22.30;36.10;;;;;;489389;242;1100;-73
2021/05/09 08:24:36;;;;;;;;;;;22.30;36.10;;;;;;490799;238;1405;-73
2021/05/09 08:26:37;;;;;;;;;;;22.40;36.10;;;;;;488606;242;2192;-73
2021/05/09 08:28:40;;;;;;;;;;;22.30;36.10;;;;;;491499;243;1307;-72
2021/05/09 08:30:39;;;;;;;;;;;22.30;36.20;;;;;;491602;237;1354;-72
2021/05/09 08:32:41;;;;;;;;;;;22.30;36.20;;;;;;490628;241;1076;-73
2021/05/09 08:34:42;;;;;;;;;;;22.30;36.20;;;;;;488593;242;1058;-72
2021/05/09 08:36:43;;;;;;;;;;;22.40;36.30;;;;;;491447;242;1129;-73
2021/05/09 08:38:45;;;;;;;;;;;22.30;36.50;;;;;;490674;241;987;-72
2021/05/09 08:40:46;;;;;;;;;;;22.30;36.60;;;;;;489786;241;1095;-72
2021/05/09 08:42:47;;;;;;;;;;;22.30;36.60;;;;;;490640;242;1079;-73
2021/05/09 08:44:49;;;;;;;;;;;22.30;36.80;;;;;;488711;239;1367;-73
2021/05/09 08:46:52;;;;;;;;;;;22.40;36.70;;;;;;491622;242;2125;-73
2021/05/09 08:48:57;;;;;;;;;;;22.40;36.70;;;;;;489780;243;1152;-72
2021/05/09 08:50:58;;;;;;;;;;;22.40;36.70;;;;;;490774;241;1645;-72
2021/05/09 08:52:59;;;;;;;;;;;22.30;36.70;;;;;;490737;241;1007;-73
2021/05/09 08:55:01;;;;;;;;;;;22.40;36.70;;;;;;490692;242;1060;-72
2021/05/09 08:57:02;;;;;;;;;;;22.40;36.80;;;;;;490756;241;1143;-73
2021/05/09 08:59:03;;;;;;;;;;;22.30;37.00;;;;;;488594;242;1159;-73
2021/05/09 09:01:04;;;;;;;;;;;22.20;37.10;;;;;;487404;243;1054;-72
2021/05/09 09:03:06;;;;;;;;;;;22.10;37.30;;;;;;487334;243;1083;-72
2021/05/09 09:05:07;;;;;;;;;;;22.00;37.40;;;;;;487308;243;1090;-72
2021/05/09 09:07:10;;;;;;;;;;;21.90;37.60;;;;;;490534;243;2175;-73
2021/05/09 09:09:13;;;;;;;;;;;21.90;37.70;;;;;;490503;241;1386;-72
2021/05/09 09:11:14;;;;;;;;;;;21.80;37.70;;;;;;491564;241;1165;-73
2021/05/09 09:13:16;;;;;;;;;;;21.90;37.60;;;;;;491892;241;1060;-72
2021/05/09 09:15:18;;;;;;;;;;;21.90;37.60;;;;;;493102;240;1033;-73
2021/05/09 09:17:19;;;;;;;;;;;21.90;37.70;;;;;;493111;240;993;-72
2021/05/09 09:19:20;;;;;;;;;;;21.90;37.70;;;;;;493300;240;981;-73
2021/05/09 09:21:22;;;;;;;;;;;21.90;38.00;;;;;;492354;240;1124;-72
2021/05/09 09:23:23;;;;;;;;;;;21.80;38.00;;;;;;490728;241;1078;-72
2021/05/09 09:25:24;;;;;;;;;;;21.80;38.10;;;;;;489847;242;948;-73
2021/05/09 09:27:25;;;;;;;;;;;21.80;38.00;;;;;;488414;242;2189;-73
2021/05/09 09:29:29;;;;;;;;;;;21.70;38.30;;;;;;489464;243;1205;-73
2021/05/09 09:31:28;;;;;;;;;;;21.60;38.40;;;;;;491265;237;1268;-73
2021/05/09 09:33:30;;;;;;;;;;;21.60;38.50;;;;;;490573;241;1084;-73
2021/05/09 09:35:31;;;;;;;;;;;21.60;38.50;;;;;;489752;239;1280;-72
2021/05/09 09:37:33;;;;;;;;;;;21.60;38.70;;;;;;488618;242;1107;-73
2021/05/09 09:39:34;;;;;;;;;;;21.60;39.00;;;;;;492147;241;1213;-73
2021/05/09 09:41:35;;;;;;;;;;;21.60;39.00;;;;;;492303;240;1245;-72
2021/05/09 09:43:38;;;;;;;;;;;21.60;39.00;;;;;;492146;240;1069;-73
2021/05/09 09:45:40;;;;;;;;;;;21.50;39.00;;;;;;492122;241;2179;-72
2021/05/09 09:47:41;;;;;;;;;;;21.50;39.10;;;;;;492186;241;1177;-72
2021/05/09 09:49:42;;;;;;;;;;;21.50;39.30;;;;;;492168;241;1031;-72
2021/05/09 09:51:44;;;;;;;;;;;21.60;39.30;;;;;;491886;240;1407;-72
2021/05/09 09:53:45;;;;;;;;;;;21.50;39.40;;;;;;489742;242;1039;-72
2021/05/09 09:55:46;;;;;;;;;;;21.50;39.50;;;;;;488597;242;1058;-73
2021/05/09 09:57:47;;;;;;;;;;;21.50;39.70;;;;;;490602;241;1206;-73
2021/05/09 09:59:59;;;;;;;;;;;21.40;39.70;;;;;;489656;242;1090;-72
2021/05/09 10:02:00;;;;;;;;;;;21.40;39.70;;;;;;488660;242;1062;-72
2021/05/09 10:04:02;;;;;;;;;;;21.40;39.70;;;;;;490484;241;1102;-72
2021/05/09 10:06:03;;;;;;;;;;;21.40;39.70;;;;;;488503;242;2178;-72
2021/05/09 10:08:04;;;;;;;;;;;21.40;39.70;;;;;;489737;243;1071;-73
2021/05/09 10:10:08;;;;;;;;;;;21.30;39.60;;;;;;490678;241;1131;-72
2021/05/09 10:12:09;;;;;;;;;;;21.30;39.60;;;;;;488767;242;1108;-73
2021/05/09 10:14:11;;;;;;;;;;;21.40;39.70;;;;;;490008;241;1358;-73
2021/05/09 10:16:12;;;;;;;;;;;21.40;39.60;;;;;;485787;243;1036;-72
2021/05/09 10:18:13;;;;;;;;;;;21.40;39.70;;;;;;489885;240;1443;-72
2021/05/09 10:20:15;;;;;;;;;;;21.40;39.60;;;;;;491444;241;1029;-72
2021/05/09 10:22:16;;;;;;;;;;;21.30;39.60;;;;;;489546;242;1166;-72
2021/05/09 10:24:17;;;;;;;;;;;21.30;39.60;;;;;;487380;243;1210;-73
2021/05/09 10:26:18;;;;;;;;;;;21.30;39.70;;;;;;487345;243;2182;-73
2021/05/09 10:28:20;;;;;;;;;;;21.30;39.70;;;;;;489573;243;1085;-73
2021/05/09 10:30:21;;;;;;;;;;;21.40;39.60;;;;;;489660;242;1198;-73
2021/05/09 10:32:22;;;;;;;;;;;21.30;39.70;;;;;;487441;243;1291;-72
2021/05/09 10:34:23;;;;;;;;;;;21.40;39.70;;;;;;489683;243;1077;-72
2021/05/09 10:36:25;;;;;;;;;;;21.40;39.60;;;;;;489788;242;1170;-72
2021/05/09 10:38:26;;;;;;;;;;;21.40;39.50;;;;;;490699;242;1052;-72
2021/05/09 10:40:31;;;;;;;;;;;21.40;39.50;;;;;;489814;242;1095;-72
2021/05/09 10:42:31;;;;;;;;;;;21.40;39.40;;;;;;490464;240;1100;-73
2021/05/09 10:44:32;;;;;;;;;;;21.30;39.40;;;;;;488815;242;1154;-73
2021/05/09 10:46:33;;;;;;;;;;;21.30;39.50;;;;;;490514;241;2188;-72
2021/05/09 10:48:35;;;;;;;;;;;21.30;39.50;;;;;;490747;242;1220;-72
2021/05/09 10:50:37;;;;;;;;;;;21.30;39.60;;;;;;489794;242;1077;-72
2021/05/09 10:52:38;;;;;;;;;;;21.30;39.60;;;;;;490536;241;1026;-72
2021/05/09 10:54:39;;;;;;;;;;;21.30;39.40;;;;;;488438;242;1047;-73
2021/05/09 10:56:40;;;;;;;;;;;21.30;39.30;;;;;;487384;243;1046;-72
2021/05/09 10:58:42;;;;;;;;;;;21.40;39.20;;;;;;489706;240;1289;-73
2021/05/09 11:00:43;;;;;;;;;;;21.30;39.20;;;;;;489726;242;1116;-73
2021/05/09 11:02:44;;;;;;;;;;;21.30;39.20;;;;;;487398;243;1244;-72
2021/05/09 11:04:46;;;;;;;;;;;21.30;39.40;;;;;;487441;243;1012;-73
2021/05/09 11:06:48;;;;;;;;;;;21.20;39.50;;;;;;487621;240;2131;-72
2021/05/09 11:08:52;;;;;;;;;;;21.20;39.40;;;;;;489619;243;1063;-72
2021/05/09 11:10:52;;;;;;;;;;;21.20;39.50;;;;;;489644;241;1452;-72
2021/05/09 11:12:54;;;;;;;;;;;21.30;39.50;;;;;;487343;243;1060;-72
2021/05/09 11:14:55;;;;;;;;;;;21.20;39.40;;;;;;489553;243;1155;-72
2021/05/09 11:16:56;;;;;;;;;;;21.30;39.30;;;;;;490672;242;1180;-72
2021/05/09 11:18:58;;;;;;;;;;;21.30;39.20;;;;;;490705;242;1042;-72
2021/05/09 11:21:00;;;;;;;;;;;21.30;39.20;;;;;;489450;238;1390;-72
2021/05/09 11:23:01;;;;;;;;;;;21.30;39.20;;;;;;487321;243;992;-72
2021/05/09 11:25:02;;;;;;;;;;;21.40;39.20;;;;;;487654;240;1375;-72
2021/05/09 11:27:03;;;;;;;;;;;21.30;39.20;;;;;;490553;241;2149;-72
2021/05/09 11:29:05;;;;;;;;;;;21.30;39.30;;;;;;488706;242;1030;-73
2021/05/09 11:31:07;;;;;;;;;;;21.30;39.30;;;;;;491492;241;1181;-73
2021/05/09 11:33:09;;;;;;;;;;;21.30;39.40;;;;;;490786;238;1192;-72
2021/05/09 11:35:10;;;;;;;;;;;21.30;39.40;;;;;;489806;242;1232;-72
2021/05/09 11:37:12;;;;;;;;;;;21.30;39.40;;;;;;491537;241;1103;-72
2021/05/09 11:39:13;;;;;;;;;;;21.40;39.30;;;;;;489541;242;1078;-73
2021/05/09 11:41:15;;;;;;;;;;;21.40;39.20;;;;;;487590;243;1110;-73
2021/05/09 11:43:16;;;;;;;;;;;21.40;39.20;;;;;;490521;241;1050;-72
2021/05/09 11:45:17;;;;;;;;;;;21.30;39.30;;;;;;490774;238;1263;-72
2021/05/09 11:47:23;;;;;;;;;;;21.30;39.40;;;;;;490434;241;2126;-73
2021/05/09 11:49:23;;;;;;;;;;;21.30;39.20;;;;;;489675;242;1325;-73
2021/05/09 11:51:24;;;;;;;;;;;21.40;39.10;;;;;;490762;239;1431;-72
2021/05/09 11:53:25;;;;;;;;;;;21.30;39.20;;;;;;489647;242;1034;-72
2021/05/09 11:55:27;;;;;;;;;;;21.20;39.60;;;;;;487440;243;1004;-73
2021/05/09 11:57:28;;;;;;;;;;;21.20;39.60;;;;;;487713;243;1258;-72